Terminal Aerodrome Forecast
Issued by NWS Caribou, ME

Home | Current Version | Previous Version | Text Only | Print | Product List | Glossary On
Versions: 1 2 3 4 5 6 7 8 9 10 11 12 13 14 15
106
FTUS41 KCAR 222320
TAFCAR
TAF
KCAR 222320Z 2300/2324 35022G33KT P6SM SCT120
     FM230500 33015G25KT P6SM SCT050
     FM231400 31020G30KT P6SM SCT050
     FM232300 29008KT P6SM SKC=

USA.gov is the U.S. government's official web portal to all federal, state and local government web resources and services.